Skagerak — SGCD — position and weather

sailwx.info

Track history (hours):
 
Tides and Currents Weather Stations Pressure Air Temp Water Temp Dewpoint Dewpoint Depression Visibility Wind Speed Wind Dir Waves Ship Positions

Oceanographic research ship Skagerak (Sweden)

Detailed information on ship capabilities available from University of Delaware's Ocean Information Center.

Last reported at 2019-Sep-21 16:59 UTC. Time now 2019-Sep-21 17:14 UTC.
Position N 58°15' E 011°27'.

Length 37 m; draft 3.8 m.

Type: Dredging. MMSI: 265280000.

Date/timePositionNaut miles runAvg speedWind from/ knotsBaromVisibWave heightAir tempDewpointWater temp
2019-Sep-21 16:59N 58°15' E 011°27'0 0.0
2019-Sep-21 16:29N 58°15' E 011°27'0 0.0
2019-Sep-21 15:59N 58°15' E 011°27'0 0.0
2019-Sep-21 15:30N 58°15' E 011°27'0 0.0
2019-Sep-21 15:00N 58°15' E 011°27'0 0.0
2019-Sep-21 14:30N 58°15' E 011°27'0 0.0
2019-Sep-21 14:00N 58°15' E 011°27'0 0.0
2019-Sep-21 13:30N 58°15' E 011°27'0 0.0
2019-Sep-21 12:59N 58°15' E 011°27'0 0.0
2019-Sep-21 12:31N 58°15' E 011°27'0 0.0
2019-Sep-21 12:00N 58°15' E 011°27'0 0.0
2019-Sep-21 11:29N 58°15' E 011°27'0 0.0
2019-Sep-21 11:00N 58°15' E 011°27'0 0.0
2019-Sep-21 10:30N 58°15' E 011°27'0 0.0
2019-Sep-21 10:00N 58°15' E 011°27'0 0.0
2019-Sep-21 09:30N 58°15' E 011°27'0 0.0
2019-Sep-21 09:00N 58°15' E 011°27'0 0.0
2019-Sep-21 08:30N 58°15' E 011°27'0 0.0
2019-Sep-21 08:00N 58°15' E 011°27'0 0.0
2019-Sep-21 07:30N 58°15' E 011°27'0 0.0
2019-Sep-21 07:00N 58°15' E 011°27'0 0.0
2019-Sep-21 06:30N 58°15' E 011°27'0 0.0
2019-Sep-21 06:00N 58°15' E 011°27'0 0.0
2019-Sep-21 05:30N 58°15' E 011°27'0 0.0
2019-Sep-21 04:59N 58°15' E 011°27'0 0.0
2019-Sep-21 04:30N 58°15' E 011°27'0 0.0
2019-Sep-21 04:00N 58°15' E 011°27'0 0.0
2019-Sep-21 03:30N 58°15' E 011°27'0 0.0
2019-Sep-21 03:00N 58°15' E 011°27'0 0.0
2019-Sep-21 02:30N 58°15' E 011°27'0 0.0
2019-Sep-21 02:00N 58°15' E 011°27'0 0.0
2019-Sep-21 01:30N 58°15' E 011°27'0 0.0
2019-Sep-21 01:00N 58°15' E 011°27'0 0.0
2019-Sep-21 00:30N 58°15' E 011°27'0 0.0
2019-Sep-21 00:01N 58°15' E 011°27'0 0.0
2019-Sep-20 23:30N 58°15' E 011°27'0 0.0
2019-Sep-20 23:00N 58°15' E 011°27'0 0.0
2019-Sep-20 22:30N 58°15' E 011°27'0 0.0
2019-Sep-20 22:01N 58°15' E 011°27'0 0.0
2019-Sep-20 21:28N 58°15' E 011°27'0 0.0
2019-Sep-20 21:00N 58°15' E 011°27'0 0.0
2019-Sep-20 20:30N 58°15' E 011°27'0 0.0
2019-Sep-20 19:59N 58°15' E 011°27'0 0.0
2019-Sep-20 19:30N 58°15' E 011°27'0 0.0
2019-Sep-20 19:00N 58°15' E 011°27'0 0.0
2019-Sep-20 18:30N 58°15' E 011°27'0 0.0
2019-Sep-20 18:00N 58°15' E 011°27'0 0.0
2019-Sep-20 17:24N 58°15' E 011°27'0 0.0
2019-Sep-20 16:59N 58°15' E 011°27'0 0.0
2019-Sep-20 16:29N 58°15' E 011°27'0 0.0
2019-Sep-20 16:00N 58°15' E 011°27'0 0.0
2019-Sep-20 15:29N 58°15' E 011°27'0 0.0
2019-Sep-20 15:00N 58°15' E 011°27'0 0.0
2019-Sep-20 14:30N 58°15' E 011°27'0 0.0
2019-Sep-20 13:56N 58°15' E 011°27'0 0.0
2019-Sep-20 13:29N 58°15' E 011°27'0 0.0
2019-Sep-20 13:00N 58°15' E 011°27'0 0.0
2019-Sep-20 12:30N 58°15' E 011°27'0 0.0
2019-Sep-20 12:00N 58°15' E 011°27'0 0.0
2019-Sep-20 11:29N 58°15' E 011°27'0 0.0
2019-Sep-20 10:59N 58°15' E 011°27'0 0.0
2019-Sep-20 10:29N 58°15' E 011°27'0 0.0
2019-Sep-20 10:00N 58°15' E 011°27'0 0.0
2019-Sep-20 09:26N 58°15' E 011°27'0 0.0
2019-Sep-20 09:00N 58°15' E 011°27'0 0.0
2019-Sep-20 08:30N 58°15' E 011°27'0 0.0
2019-Sep-20 07:47N 58°15' E 011°27'  
2019-Sep-14 06:05N 58°15' E 011°27'0 0.0
2019-Sep-12 10:58N 58°15' E 011°27'4 8.0
2019-Sep-12 10:31N 58°12' E 011°24'10 8.0
2019-Sep-12 09:19N 58°16' E 011°40'5 6.4
2019-Sep-12 08:33N 58°19' E 011°48'1 8.9
2019-Sep-12 08:29N 58°19' E 011°49'0 0.4
2019-Sep-12 07:59N 58°19' E 011°49'0 0.0
2019-Sep-12 07:28N 58°19' E 011°49'  
Track history (hours):
 
Tides and Currents Weather Stations Pressure Air Temp Water Temp Dewpoint Dewpoint Depression Visibility Wind Speed Wind Dir Waves Ship Positions

Oceanographic research ship Skagerak (Sweden)

Detailed information on ship capabilities available from University of Delaware's Ocean Information Center.

Last reported at 2019-Sep-21 16:59 UTC. Time now 2019-Sep-21 17:14 UTC.
Position N 58°15' E 011°27'.

Length 37 m; draft 3.8 m.

Type: Dredging. MMSI: 265280000.

Date/timePositionNaut miles runAvg speedWind from/ knotsBaromVisibWave heightAir tempDewpointWater temp
2019-Sep-21 16:59N 58°15' E 011°27'0 0.0
2019-Sep-21 16:29N 58°15' E 011°27'0 0.0
2019-Sep-21 15:59N 58°15' E 011°27'0 0.0
2019-Sep-21 15:30N 58°15' E 011°27'0 0.0
2019-Sep-21 15:00N 58°15' E 011°27'0 0.0
2019-Sep-21 14:30N 58°15' E 011°27'0 0.0
2019-Sep-21 14:00N 58°15' E 011°27'0 0.0
2019-Sep-21 13:30N 58°15' E 011°27'0 0.0
2019-Sep-21 12:59N 58°15' E 011°27'0 0.0
2019-Sep-21 12:31N 58°15' E 011°27'0 0.0
2019-Sep-21 12:00N 58°15' E 011°27'0 0.0
2019-Sep-21 11:29N 58°15' E 011°27'0 0.0
2019-Sep-21 11:00N 58°15' E 011°27'0 0.0
2019-Sep-21 10:30N 58°15' E 011°27'0 0.0
2019-Sep-21 10:00N 58°15' E 011°27'0 0.0
2019-Sep-21 09:30N 58°15' E 011°27'0 0.0
2019-Sep-21 09:00N 58°15' E 011°27'0 0.0
2019-Sep-21 08:30N 58°15' E 011°27'0 0.0
2019-Sep-21 08:00N 58°15' E 011°27'0 0.0
2019-Sep-21 07:30N 58°15' E 011°27'0 0.0
2019-Sep-21 07:00N 58°15' E 011°27'0 0.0
2019-Sep-21 06:30N 58°15' E 011°27'0 0.0
2019-Sep-21 06:00N 58°15' E 011°27'0 0.0
2019-Sep-21 05:30N 58°15' E 011°27'0 0.0
2019-Sep-21 04:59N 58°15' E 011°27'0 0.0
2019-Sep-21 04:30N 58°15' E 011°27'0 0.0
2019-Sep-21 04:00N 58°15' E 011°27'0 0.0
2019-Sep-21 03:30N 58°15' E 011°27'0 0.0
2019-Sep-21 03:00N 58°15' E 011°27'0 0.0
2019-Sep-21 02:30N 58°15' E 011°27'0 0.0
2019-Sep-21 02:00N 58°15' E 011°27'0 0.0
2019-Sep-21 01:30N 58°15' E 011°27'0 0.0
2019-Sep-21 01:00N 58°15' E 011°27'0 0.0
2019-Sep-21 00:30N 58°15' E 011°27'0 0.0
2019-Sep-21 00:01N 58°15' E 011°27'0 0.0
2019-Sep-20 23:30N 58°15' E 011°27'0 0.0
2019-Sep-20 23:00N 58°15' E 011°27'0 0.0
2019-Sep-20 22:30N 58°15' E 011°27'0 0.0
2019-Sep-20 22:01N 58°15' E 011°27'0 0.0
2019-Sep-20 21:28N 58°15' E 011°27'0 0.0
2019-Sep-20 21:00N 58°15' E 011°27'0 0.0
2019-Sep-20 20:30N 58°15' E 011°27'0 0.0
2019-Sep-20 19:59N 58°15' E 011°27'0 0.0
2019-Sep-20 19:30N 58°15' E 011°27'0 0.0
2019-Sep-20 19:00N 58°15' E 011°27'0 0.0
2019-Sep-20 18:30N 58°15' E 011°27'0 0.0
2019-Sep-20 18:00N 58°15' E 011°27'0 0.0
2019-Sep-20 17:24N 58°15' E 011°27'0 0.0
2019-Sep-20 16:59N 58°15' E 011°27'0 0.0
2019-Sep-20 16:29N 58°15' E 011°27'0 0.0
2019-Sep-20 16:00N 58°15' E 011°27'0 0.0
2019-Sep-20 15:29N 58°15' E 011°27'0 0.0
2019-Sep-20 15:00N 58°15' E 011°27'0 0.0
2019-Sep-20 14:30N 58°15' E 011°27'0 0.0
2019-Sep-20 13:56N 58°15' E 011°27'0 0.0
2019-Sep-20 13:29N 58°15' E 011°27'0 0.0
2019-Sep-20 13:00N 58°15' E 011°27'0 0.0
2019-Sep-20 12:30N 58°15' E 011°27'0 0.0
2019-Sep-20 12:00N 58°15' E 011°27'0 0.0
2019-Sep-20 11:29N 58°15' E 011°27'0 0.0
2019-Sep-20 10:59N 58°15' E 011°27'0 0.0
2019-Sep-20 10:29N 58°15' E 011°27'0 0.0
2019-Sep-20 10:00N 58°15' E 011°27'0 0.0
2019-Sep-20 09:26N 58°15' E 011°27'0 0.0
2019-Sep-20 09:00N 58°15' E 011°27'0 0.0
2019-Sep-20 08:30N 58°15' E 011°27'0 0.0
2019-Sep-20 07:47N 58°15' E 011°27'  
2019-Sep-14 06:05N 58°15' E 011°27'0 0.0
2019-Sep-12 10:58N 58°15' E 011°27'4 8.0
2019-Sep-12 10:31N 58°12' E 011°24'10 8.0
2019-Sep-12 09:19N 58°16' E 011°40'5 6.4
2019-Sep-12 08:33N 58°19' E 011°48'1 8.9
2019-Sep-12 08:29N 58°19' E 011°49'0 0.4
2019-Sep-12 07:59N 58°19' E 011°49'0 0.0
2019-Sep-12 07:28N 58°19' E 011°49'  

Dump ship's entire track history